createdAt,value
2019-05-11T00:02:19.717Z,5.07
2019-05-11T00:04:50.367Z,2.77
2019-05-11T00:07:22.830Z,3.63
2019-05-11T00:09:58.038Z,4.47
2019-05-11T00:12:25.416Z,5.30
2019-05-11T00:14:56.231Z,6.67
2019-05-11T00:17:29.559Z,5.07
2019-05-11T00:19:59.979Z,4.40
2019-05-11T00:22:30.429Z,4.23
2019-05-11T00:25:00.980Z,4.60
2019-05-11T00:27:31.575Z,4.90
2019-05-11T00:30:02.040Z,5.57
2019-05-11T00:32:36.038Z,5.33
2019-05-11T00:35:07.165Z,5.57
2019-05-11T00:37:40.160Z,5.43
2019-05-11T00:40:14.864Z,5.20
2019-05-11T00:42:43.528Z,3.90
2019-05-11T00:45:14.633Z,5.67
2019-05-11T00:47:45.076Z,4.93
2019-05-11T00:50:15.796Z,4.90
2019-05-11T00:52:46.500Z,4.67
2019-05-11T00:55:16.947Z,5.10
2019-05-11T00:57:47.472Z,4.77
2019-05-11T01:00:18.588Z,6.20
2019-05-11T01:02:49.484Z,7.50
2019-05-11T01:05:22.923Z,6.00
2019-05-11T01:07:56.048Z,5.47
2019-05-11T01:10:41.218Z,4.93
2019-05-11T01:12:58.883Z,5.70
2019-05-11T01:15:31.203Z,6.03
2019-05-11T01:18:01.746Z,5.80
2019-05-11T01:20:32.381Z,7.00
2019-05-11T01:23:02.932Z,5.77
2019-05-11T01:25:33.429Z,7.23
2019-05-11T01:28:04.215Z,6.67
2019-05-11T01:30:34.914Z,7.77
2019-05-11T01:33:05.491Z,8.93
2019-05-11T01:35:35.815Z,7.13
2019-05-11T01:38:07.068Z,8.17
2019-05-11T01:40:37.497Z,7.77
2019-05-11T01:43:07.873Z,8.37
2019-05-11T01:45:38.298Z,8.57
2019-05-11T01:48:08.659Z,7.13
2019-05-11T01:50:39.051Z,7.70
2019-05-11T01:53:09.475Z,7.90
2019-05-11T01:55:39.820Z,7.63
2019-05-11T01:58:10.272Z,7.53
2019-05-11T02:00:40.707Z,7.70
2019-05-11T02:03:11.151Z,8.00
2019-05-11T02:05:41.480Z,8.00
2019-05-11T02:08:11.923Z,8.63
2019-05-11T02:10:42.355Z,8.00
2019-05-11T02:13:12.896Z,7.70
2019-05-11T02:15:43.329Z,7.57
2019-05-11T02:18:13.800Z,7.23
2019-05-11T02:20:44.293Z,8.00
2019-05-11T02:23:14.862Z,7.90
2019-05-11T02:25:45.260Z,8.13
2019-05-11T02:28:15.689Z,7.77
2019-05-11T02:30:46.121Z,8.13
2019-05-11T02:33:16.580Z,9.00
2019-05-11T02:35:46.994Z,8.27
2019-05-11T02:38:18.334Z,9.73
2019-05-11T02:40:48.824Z,8.80
2019-05-11T02:43:19.226Z,8.87
2019-05-11T02:45:49.936Z,9.93
2019-05-11T02:48:20.423Z,8.60
2019-05-11T02:50:51.610Z,9.43
2019-05-11T02:53:23.323Z,9.07
2019-05-11T02:55:53.910Z,8.97
2019-05-11T02:58:24.320Z,8.40
2019-05-11T03:00:54.730Z,8.77
2019-05-11T03:03:25.236Z,8.67
2019-05-11T03:05:55.755Z,9.37
2019-05-11T03:08:26.296Z,8.63
2019-05-11T03:10:56.745Z,9.47
2019-05-11T03:13:27.110Z,8.33
2019-05-11T03:15:57.503Z,9.33
2019-05-11T03:18:27.964Z,9.30
2019-05-11T03:20:58.343Z,8.63
2019-05-11T03:23:28.726Z,9.73
2019-05-11T03:25:59.188Z,9.77
2019-05-11T03:28:29.656Z,8.07
2019-05-11T03:31:00.048Z,8.07
2019-05-11T03:33:30.508Z,8.43
2019-05-11T03:36:00.877Z,8.17
2019-05-11T03:38:31.312Z,7.93
2019-05-11T03:41:01.709Z,8.70
2019-05-11T03:43:32.136Z,8.27
2019-05-11T03:46:02.623Z,8.77
2019-05-11T03:48:33.074Z,8.87
2019-05-11T03:51:03.584Z,8.47
2019-05-11T03:53:34.143Z,8.50
2019-05-11T03:56:04.531Z,7.53
2019-05-11T03:58:34.879Z,8.47
2019-05-11T04:01:05.264Z,10.53
2019-05-11T04:03:35.575Z,8.07
2019-05-11T04:06:06.061Z,8.20
2019-05-11T04:08:36.625Z,8.13
2019-05-11T04:11:07.046Z,8.20
2019-05-11T04:13:37.520Z,8.43
2019-05-11T04:16:07.950Z,7.90
2019-05-11T04:18:38.408Z,7.77
2019-05-11T04:21:08.883Z,8.87
2019-05-11T04:23:39.233Z,8.13
2019-05-11T04:26:10.572Z,10.20
2019-05-11T04:28:41.101Z,10.63
2019-05-11T04:31:11.406Z,9.63
2019-05-11T04:33:41.900Z,9.83
2019-05-11T04:36:12.338Z,10.17
2019-05-11T04:38:42.814Z,10.00
2019-05-11T04:41:13.265Z,11.20
2019-05-11T04:43:43.672Z,10.67
2019-05-11T04:46:14.200Z,10.57
2019-05-11T04:48:44.697Z,10.27
2019-05-11T04:51:15.164Z,11.77
2019-05-11T04:53:47.429Z,10.70
2019-05-11T04:56:17.889Z,12.13
2019-05-11T04:58:48.360Z,10.87
2019-05-11T05:01:18.878Z,10.73
2019-05-11T05:03:53.870Z,11.60
2019-05-11T05:06:23.947Z,11.67
2019-05-11T05:08:58.243Z,13.30
2019-05-11T05:11:30.499Z,13.27
2019-05-11T05:14:01.908Z,12.37
2019-05-11T05:16:31.444Z,12.70
2019-05-11T05:19:02.193Z,13.07
2019-05-11T05:21:32.638Z,13.33
2019-05-11T05:24:03.073Z,13.30
2019-05-11T05:26:33.564Z,12.60
2019-05-11T05:29:03.994Z,14.70
2019-05-11T05:31:34.498Z,12.50
2019-05-11T05:34:05.021Z,10.77
2019-05-11T05:36:35.432Z,11.07
2019-05-11T05:39:09.303Z,10.10
2019-05-11T05:41:40.037Z,11.70
2019-05-11T05:44:10.564Z,11.73
2019-05-11T05:46:40.997Z,13.63
2019-05-11T05:49:11.440Z,14.57
2019-05-11T05:51:41.827Z,14.40
2019-05-11T05:54:12.282Z,13.43
2019-05-11T05:56:42.801Z,12.93
2019-05-11T05:59:13.229Z,13.37
2019-05-11T06:01:43.687Z,14.07
2019-05-11T06:04:14.176Z,15.10
2019-05-11T06:06:44.535Z,13.37
2019-05-11T06:09:14.982Z,12.97
2019-05-11T06:11:45.507Z,12.47
2019-05-11T06:14:15.949Z,13.37
2019-05-11T06:16:47.497Z,12.23
2019-05-11T06:19:17.959Z,12.77
2019-05-11T06:21:48.350Z,13.23
2019-05-11T06:24:18.887Z,13.83
2019-05-11T06:26:49.310Z,10.87
2019-05-11T06:29:21.754Z,12.20
2019-05-11T06:31:52.063Z,12.20
2019-05-11T06:34:22.561Z,11.07
2019-05-11T06:36:52.963Z,10.40
2019-05-11T06:39:23.397Z,9.10
2019-05-11T06:41:53.890Z,11.17
2019-05-11T06:44:24.388Z,10.57
2019-05-11T06:46:54.858Z,10.47
2019-05-11T06:49:25.223Z,10.53
2019-05-11T06:51:55.628Z,10.10
2019-05-11T06:54:26.023Z,11.33
2019-05-11T06:56:56.395Z,6.77
2019-05-11T06:59:26.725Z,5.80
2019-05-11T07:01:57.176Z,5.10
2019-05-11T07:04:30.048Z,5.17
2019-05-11T07:07:00.489Z,3.30
2019-05-11T07:09:31.049Z,4.10
2019-05-11T07:12:01.590Z,7.33
2019-05-11T07:14:32.054Z,5.67
2019-05-11T07:17:02.587Z,3.23
2019-05-11T07:19:33.109Z,3.60
2019-05-11T07:22:03.545Z,3.03
2019-05-11T07:24:34.020Z,3.10
2019-05-11T07:27:04.686Z,2.90
2019-05-11T07:29:35.151Z,2.17
2019-05-11T07:32:16.598Z,1.67
2019-05-11T07:34:38.443Z,4.37
2019-05-11T07:37:08.968Z,2.23
2019-05-11T07:39:39.395Z,3.03
2019-05-11T07:42:09.803Z,3.47
2019-05-11T07:44:41.828Z,2.43
2019-05-11T07:47:12.516Z,3.20
2019-05-11T07:49:42.868Z,1.70
2019-05-11T07:52:13.292Z,1.67
2019-05-11T07:54:43.843Z,3.27
2019-05-11T07:57:14.351Z,3.80
2019-05-11T07:59:44.811Z,1.80
2019-05-11T08:02:15.103Z,1.60
2019-05-11T08:04:48.103Z,2.67
2019-05-11T08:07:18.289Z,2.80
2019-05-11T08:09:48.698Z,1.50
2019-05-11T08:12:19.329Z,5.40
2019-05-11T08:15:00.881Z,1.30
2019-05-11T08:17:21.977Z,3.60
2019-05-11T08:19:52.464Z,1.30
2019-05-11T08:22:23.133Z,2.17
2019-05-11T08:24:53.633Z,3.13
2019-05-11T08:27:24.030Z,2.10
2019-05-11T08:29:54.481Z,4.33
2019-05-11T08:32:24.901Z,1.87
2019-05-11T08:34:55.475Z,2.30
2019-05-11T08:37:28.419Z,2.50
2019-05-11T08:39:58.695Z,2.33
2019-05-11T08:42:29.190Z,1.90
2019-05-11T08:45:15.337Z,2.57
2019-05-11T08:47:31.783Z,1.20
2019-05-11T08:50:02.340Z,1.37
2019-05-11T08:52:32.685Z,2.67
2019-05-11T08:55:03.180Z,3.90
2019-05-11T08:57:33.734Z,2.40
2019-05-11T09:00:04.455Z,21.87
2019-05-11T09:02:34.963Z,7.57
2019-05-11T09:05:07.959Z,8.87
2019-05-11T09:07:38.399Z,40.43
2019-05-11T09:10:09.118Z,29.40
2019-05-11T09:12:39.575Z,78.83
2019-05-11T09:15:12.817Z,26.77
2019-05-11T09:17:42.911Z,5.67
2019-05-11T09:20:14.544Z,3.57
2019-05-11T09:22:44.961Z,3.33
2019-05-11T09:25:15.363Z,5.67
2019-05-11T09:27:47.591Z,15.10
2019-05-11T09:30:18.531Z,7.43
2019-05-11T09:32:49.301Z,5.23
2019-05-11T09:35:19.770Z,2.97
2019-05-11T09:37:50.165Z,2.23
2019-05-11T09:40:20.495Z,1.47
2019-05-11T09:42:50.897Z,2.60
2019-05-11T09:45:21.365Z,2.60
2019-05-11T09:47:51.836Z,3.90
2019-05-11T09:50:22.146Z,3.17
2019-05-11T09:52:52.542Z,3.40
2019-05-11T09:55:23.032Z,1.63
2019-05-11T09:57:53.483Z,7.20
2019-05-11T10:00:24.121Z,1.90
2019-05-11T10:02:54.571Z,2.17
2019-05-11T10:05:24.993Z,3.53
2019-05-11T10:07:55.382Z,1.80
2019-05-11T10:10:25.800Z,2.53
2019-05-11T10:12:56.258Z,2.83
2019-05-11T10:15:27.895Z,4.50
2019-05-11T10:17:59.028Z,1.43
2019-05-11T10:20:29.563Z,1.53
2019-05-11T10:23:00.024Z,1.90
2019-05-11T10:25:30.450Z,1.57
2019-05-11T10:28:00.825Z,1.73
2019-05-11T10:30:31.255Z,3.00
2019-05-11T10:33:01.626Z,2.23
2019-05-11T10:35:32.037Z,1.43
2019-05-11T10:38:02.440Z,1.33
2019-05-11T10:40:32.863Z,2.20
2019-05-11T10:43:03.275Z,1.57
2019-05-11T10:45:33.650Z,2.40
2019-05-11T10:50:48.391Z,1.40
2019-05-11T10:53:18.473Z,1.40
2019-05-11T10:55:49.197Z,2.80
2019-05-11T10:58:19.572Z,1.43
2019-05-11T11:00:50.001Z,3.03
2019-05-11T11:03:20.287Z,1.30
2019-05-11T11:05:50.756Z,2.60
2019-05-11T11:08:21.338Z,1.20
2019-05-11T11:10:51.752Z,1.20
2019-05-11T11:13:22.327Z,2.50
2019-05-11T11:15:52.763Z,1.87
2019-05-11T11:18:23.278Z,2.63
2019-05-11T11:20:53.554Z,2.17
2019-05-11T11:23:24.011Z,3.67
2019-05-11T11:25:54.565Z,2.53
2019-05-11T11:28:24.878Z,1.73
2019-05-11T11:30:55.237Z,3.07
2019-05-11T11:33:27.561Z,1.83
2019-05-11T11:35:58.075Z,2.43
2019-05-11T11:38:28.809Z,2.60
2019-05-11T11:40:59.283Z,1.73
2019-05-11T11:43:29.650Z,2.10
2019-05-11T11:46:00.087Z,1.70
2019-05-11T11:51:14.957Z,2.03
2019-05-11T11:59:04.168Z,2.87
2019-05-11T12:01:34.529Z,2.13
2019-05-11T12:04:04.911Z,2.33
2019-05-11T12:06:35.338Z,3.77
2019-05-11T12:09:11.250Z,2.47
2019-05-11T12:11:41.924Z,3.00
2019-05-11T12:14:12.346Z,1.27
2019-05-11T12:16:42.833Z,1.62
2019-05-11T12:19:13.390Z,2.57
2019-05-11T12:21:43.857Z,2.10
2019-05-11T12:24:14.325Z,1.50
2019-05-11T12:26:45.033Z,1.50
2019-05-11T12:29:18.863Z,2.40
2019-05-11T12:31:49.001Z,2.37
2019-05-11T12:34:21.157Z,2.63
2019-05-11T12:37:01.861Z,2.10
2019-05-11T12:39:34.933Z,2.47
2019-05-11T12:42:11.714Z,3.50
2019-05-11T12:44:58.148Z,1.47
2019-05-11T12:47:29.085Z,2.27
2019-05-11T12:50:04.322Z,1.53
2019-05-11T12:52:59.390Z,3.20
2019-05-11T12:55:32.232Z,2.43
2019-05-11T12:58:05.684Z,2.37
2019-05-11T13:00:39.116Z,1.87
2019-05-11T13:03:10.163Z,2.60
2019-05-11T13:05:42.381Z,2.03
2019-05-11T13:08:36.305Z,3.13
2019-05-11T13:11:12.113Z,2.57
2019-05-11T13:13:55.053Z,1.47
2019-05-11T13:16:39.387Z,2.57
2019-05-11T13:19:11.042Z,2.07
2019-05-11T13:22:00.599Z,2.50
2019-05-11T13:24:31.028Z,2.08
2019-05-11T13:27:01.649Z,1.93
2019-05-11T13:29:32.106Z,2.90
2019-05-11T13:32:02.579Z,2.23
2019-05-11T13:34:33.256Z,116.90
2019-05-11T13:37:03.901Z,122.43
2019-05-11T13:39:34.605Z,34.57
2019-05-11T13:42:05.195Z,9.20
2019-05-11T13:44:35.662Z,11.30
2019-05-11T13:47:08.431Z,5.40
2019-05-11T13:49:38.358Z,3.87
2019-05-11T13:52:09.097Z,13.90
2019-05-11T13:54:39.711Z,32.30
2019-05-11T13:57:10.359Z,6.13
2019-05-11T13:59:40.714Z,0.70
2019-05-11T14:02:11.302Z,1.53
2019-05-11T14:04:41.710Z,2.83
2019-05-11T14:07:12.175Z,3.47
2019-05-11T14:09:42.584Z,0.97
2019-05-11T14:12:13.038Z,1.97
2019-05-11T14:14:43.438Z,3.50
2019-05-11T14:17:13.908Z,2.47
2019-05-11T14:19:44.415Z,0.50
2019-05-11T14:22:15.100Z,3.03
2019-05-11T14:24:47.619Z,1.20
2019-05-11T14:27:18.031Z,1.47
2019-05-11T14:29:48.800Z,0.40
2019-05-11T14:32:19.216Z,1.90
2019-05-11T14:34:49.762Z,2.47
2019-05-11T14:37:20.951Z,0.77
2019-05-11T14:39:51.426Z,1.27
2019-05-11T14:42:22.472Z,1.30
2019-05-11T14:44:52.949Z,1.20
2019-05-11T14:47:23.479Z,1.43
2019-05-11T14:49:53.873Z,2.37
2019-05-11T14:52:24.367Z,1.57
2019-05-11T14:54:54.796Z,1.83
2019-05-11T14:57:27.742Z,1.47
2019-05-11T14:59:58.629Z,0.67
2019-05-11T15:02:49.304Z,0.80
2019-05-11T15:05:20.830Z,1.30
2019-05-11T15:07:52.811Z,0.90
2019-05-11T15:10:24.500Z,0.60
2019-05-11T15:12:54.968Z,2.63
2019-05-11T15:15:27.751Z,0.80
2019-05-11T15:17:58.418Z,3.03
2019-05-11T15:20:29.338Z,1.13
2019-05-11T15:22:59.735Z,1.13
2019-05-11T15:25:30.127Z,0.70
2019-05-11T15:28:00.514Z,1.63
2019-05-11T15:30:30.958Z,1.57
2019-05-11T15:33:01.274Z,1.00
2019-05-11T15:35:31.698Z,0.93
2019-05-11T15:38:02.134Z,3.10
2019-05-11T15:40:32.572Z,1.47
2019-05-11T15:43:02.992Z,1.20
2019-05-11T15:45:33.404Z,2.27
2019-05-11T15:48:03.876Z,6.97
2019-05-11T15:50:34.373Z,1.47
2019-05-11T15:53:04.704Z,1.87
2019-05-11T15:55:35.208Z,0.93
2019-05-11T15:58:05.741Z,0.70
2019-05-11T16:00:39.694Z,0.63
2019-05-11T16:03:08.509Z,0.97
2019-05-11T16:05:38.901Z,64.50
2019-05-11T16:08:09.348Z,53.33
2019-05-11T16:10:39.674Z,31.13
2019-05-11T16:13:10.069Z,3.20
2019-05-11T16:15:40.600Z,9.23
2019-05-11T16:18:11.006Z,5.00
2019-05-11T16:20:41.457Z,1.93
2019-05-11T16:23:11.930Z,0.80
2019-05-11T16:25:42.436Z,1.27
2019-05-11T16:28:12.892Z,0.60
2019-05-11T16:30:43.278Z,2.90
2019-05-11T16:33:13.672Z,1.50
2019-05-11T16:35:44.131Z,1.10
2019-05-11T16:38:14.586Z,1.07
2019-05-11T16:40:45.028Z,2.40
2019-05-11T16:43:15.510Z,0.83
2019-05-11T16:45:46.006Z,0.60
2019-05-11T16:48:18.439Z,3.17
2019-05-11T16:50:48.563Z,2.00
2019-05-11T16:53:19.047Z,1.73
2019-05-11T16:55:49.473Z,4.23
2019-05-11T16:58:20.209Z,3.13
2019-05-11T17:00:50.623Z,2.47
2019-05-11T17:03:21.091Z,2.30
2019-05-11T17:05:51.547Z,2.67
2019-05-11T17:08:21.979Z,0.83
2019-05-11T17:10:59.575Z,2.63
2019-05-11T17:13:30.115Z,1.10
2019-05-11T17:16:00.749Z,1.90
2019-05-11T17:18:31.297Z,5.47
2019-05-11T17:21:01.693Z,7.53
2019-05-11T17:23:32.172Z,4.70
2019-05-11T17:26:02.672Z,3.93
2019-05-11T17:28:33.019Z,2.00
2019-05-11T17:31:03.429Z,2.30
2019-05-11T17:33:33.847Z,0.97
2019-05-11T17:36:04.331Z,1.27
2019-05-11T17:38:34.621Z,1.47
2019-05-11T17:41:05.005Z,2.00
2019-05-11T17:43:35.351Z,0.80
2019-05-11T17:46:07.857Z,1.10
2019-05-11T17:48:38.803Z,0.67
2019-05-11T17:51:20.667Z,0.93
2019-05-11T17:53:41.533Z,0.83
2019-05-11T17:56:11.982Z,0.80
2019-05-11T17:58:42.426Z,0.73
2019-05-11T18:01:13.758Z,1.93
2019-05-11T18:03:44.109Z,2.13
2019-05-11T18:06:14.502Z,0.73
2019-05-11T18:08:44.990Z,1.13
2019-05-11T18:11:15.407Z,0.70
2019-05-11T18:13:48.081Z,2.10
2019-05-11T18:16:18.766Z,0.50
2019-05-11T18:18:49.433Z,0.30
2019-05-11T18:21:19.866Z,0.37
2019-05-11T18:23:50.308Z,1.13
2019-05-11T18:26:20.743Z,2.73
2019-05-11T18:28:51.147Z,0.80
2019-05-11T18:31:21.477Z,0.60
2019-05-11T18:33:51.931Z,7.13
2019-05-11T18:36:22.347Z,2.13
2019-05-11T18:38:52.798Z,2.47
2019-05-11T18:41:23.286Z,1.17
2019-05-11T18:43:53.657Z,1.03
2019-05-11T18:46:24.084Z,0.73
2019-05-11T18:48:54.525Z,1.13
2019-05-11T18:51:24.960Z,2.33
2019-05-11T18:53:55.347Z,1.27
2019-05-11T18:56:25.758Z,2.23
2019-05-11T18:58:58.236Z,3.40
2019-05-11T19:01:28.630Z,1.33
2019-05-11T19:04:00.127Z,1.50
2019-05-11T19:06:30.638Z,2.07
2019-05-11T19:09:01.068Z,1.30
2019-05-11T19:11:31.619Z,1.30
2019-05-11T19:14:02.087Z,1.93
2019-05-11T19:16:32.609Z,3.10
2019-05-11T19:19:03.055Z,1.30
2019-05-11T19:21:33.543Z,1.73
2019-05-11T19:24:06.036Z,0.80
2019-05-11T19:26:36.124Z,2.10
2019-05-11T19:29:08.959Z,2.60
2019-05-11T19:31:38.865Z,1.33
2019-05-11T19:34:09.417Z,1.30
2019-05-11T19:36:42.827Z,2.23
2019-05-11T19:39:13.207Z,1.23
2019-05-11T19:41:43.709Z,0.97
2019-05-11T19:44:14.154Z,1.17
2019-05-11T19:46:44.603Z,1.80
2019-05-11T19:49:14.906Z,0.80
2019-05-11T19:51:45.463Z,0.60
2019-05-11T19:54:15.887Z,0.53
2019-05-11T19:56:46.281Z,1.10
2019-05-11T19:59:16.697Z,0.53
2019-05-11T20:01:47.082Z,0.40
2019-05-11T20:04:18.771Z,0.70
2019-05-11T20:06:49.413Z,0.30
2019-05-11T20:09:19.723Z,0.83
2019-05-11T20:11:50.164Z,1.60
2019-05-11T20:14:20.503Z,2.57
2019-05-11T20:16:51.066Z,0.20
2019-05-11T20:19:21.422Z,0.40
2019-05-11T20:21:51.950Z,0.40
2019-05-11T20:24:25.088Z,0.87
2019-05-11T20:26:54.655Z,0.20
2019-05-11T20:29:25.091Z,0.30
2019-05-11T20:31:57.727Z,0.50
2019-05-11T20:34:28.864Z,0.47
2019-05-11T20:36:59.548Z,0.97
2019-05-11T20:39:30.027Z,0.57
2019-05-11T20:42:00.578Z,0.90
2019-05-11T20:44:30.967Z,1.07
2019-05-11T20:47:01.444Z,0.33
2019-05-11T20:49:31.838Z,0.50
2019-05-11T20:52:02.292Z,0.70
2019-05-11T20:54:32.611Z,0.93
2019-05-11T20:57:03.107Z,0.40
2019-05-11T20:59:33.588Z,0.80
2019-05-11T21:02:04.022Z,1.17
2019-05-11T21:04:34.482Z,0.70
2019-05-11T21:07:04.856Z,0.67
2019-05-11T21:09:35.354Z,0.20
2019-05-11T21:12:07.986Z,0.77
2019-05-11T21:14:38.590Z,1.90
2019-05-11T21:17:09.155Z,0.40
2019-05-11T21:19:42.672Z,1.53
2019-05-11T21:22:12.204Z,0.50
2019-05-11T21:24:42.558Z,0.20
2019-05-11T21:27:13.011Z,1.30
2019-05-11T21:29:43.501Z,0.30
2019-05-11T21:32:13.913Z,0.30
2019-05-11T21:34:44.428Z,0.20
2019-05-11T21:37:14.858Z,0.20
2019-05-11T21:39:45.312Z,1.30
2019-05-11T21:42:18.022Z,0.60
2019-05-11T21:44:47.911Z,0.30
2019-05-11T21:47:18.495Z,0.77
2019-05-11T21:49:49.116Z,1.20
2019-05-11T21:52:19.576Z,0.30
2019-05-11T21:54:50.084Z,0.23
2019-05-11T21:57:20.481Z,0.23
2019-05-11T21:59:51.060Z,0.50
2019-05-11T22:02:21.662Z,0.27
2019-05-11T22:04:52.122Z,0.20
2019-05-11T22:07:23.287Z,0.20
2019-05-11T22:09:53.961Z,0.33
2019-05-11T22:12:24.592Z,0.50
2019-05-11T22:14:55.061Z,0.30
2019-05-11T22:17:25.450Z,0.33
2019-05-11T22:19:58.380Z,0.40
2019-05-11T22:22:28.680Z,0.60
2019-05-11T22:24:59.286Z,0.57
2019-05-11T22:27:29.611Z,0.67
2019-05-11T22:30:00.033Z,0.30
2019-05-11T22:32:30.460Z,0.40
2019-05-11T22:35:00.959Z,0.40
2019-05-11T22:37:31.456Z,0.53
2019-05-11T22:40:01.890Z,1.23
2019-05-11T22:42:32.314Z,0.63
2019-05-11T22:45:02.766Z,0.30
2019-05-11T22:47:33.209Z,0.93
2019-05-11T22:50:03.689Z,0.57
2019-05-11T22:52:36.682Z,0.60
2019-05-11T22:55:08.990Z,0.70
2019-05-11T22:57:38.738Z,0.87
2019-05-11T23:00:10.494Z,0.50
2019-05-11T23:02:40.959Z,0.67
2019-05-11T23:05:11.462Z,0.50
2019-05-11T23:07:41.889Z,1.23
2019-05-11T23:10:12.469Z,1.20
2019-05-11T23:12:42.824Z,1.23
2019-05-11T23:15:13.717Z,1.63
2019-05-11T23:17:44.234Z,1.90
2019-05-11T23:20:16.412Z,2.10
2019-05-11T23:22:56.826Z,1.67
2019-05-11T23:25:20.649Z,2.10
2019-05-11T23:27:51.057Z,2.00
2019-05-11T23:30:21.872Z,2.60
2019-05-11T23:32:52.321Z,4.63
2019-05-11T23:35:22.754Z,2.20
2019-05-11T23:37:53.180Z,2.67
2019-05-11T23:40:23.764Z,4.47
2019-05-11T23:42:54.157Z,2.90
2019-05-11T23:45:24.548Z,7.10
2019-05-11T23:47:55.018Z,8.57
2019-05-11T23:50:27.877Z,8.50
2019-05-11T23:53:06.119Z,4.33
2019-05-11T23:55:29.547Z,5.23
2019-05-11T23:58:00.019Z,5.50
